<?xml version="1.0" encoding="UTF-8" standalone="no" ?>
<gpx xmlns="http://www.topografix.com/GPX/1/1" xmlns:xsi="http://www.w3.org/2001/XMLSchema-instance" xsi:schemaLocation="http://www.topografix.com/GPX/1/1 http://www.topografix.com/GPX/1/1/gpx.xsd" version="1.1" creator="VisuGPX - https://www.visugpx.com">
  <metadata>
    <name>Tour du mont Mézenc</name>
  </metadata>
  <trk>
    <name><![CDATA[Tour du mont Mézenc_1]]></name>
    <trkseg>
      <trkpt lat="44.89946" lon="4.18547">
        <ele>1512</ele>
        <time>2020-09-03T17:01:20Z</time>
        <extensions>
          <visugpx:TrkExtension xmlns:visugpx="https://www.visugpx.com/editgpx/">
            <visugpx:node>1</visugpx:node>
            </visugpx:TrkExtension>
        </extensions>
      </trkpt>
      <trkpt lat="44.89949" lon="4.18527">
        <ele>1513</ele>
        <time>2020-09-03T12:43:19Z</time>
      </trkpt>
      <trkpt lat="44.89949" lon="4.18527">
        <ele>1513</ele>
        <time>2020-09-03T12:43:19Z</time>
      </trkpt>
      <trkpt lat="44.89995" lon="4.18531">
        <ele>1513</ele>
        <time>2020-09-03T12:44:21Z</time>
      </trkpt>
      <trkpt lat="44.90018" lon="4.18522">
        <ele>1516</ele>
        <time>2020-09-03T12:44:52Z</time>
      </trkpt>
      <trkpt lat="44.90043" lon="4.18499">
        <ele>1520</ele>
        <time>2020-09-03T12:45:32Z</time>
      </trkpt>
      <trkpt lat="44.9008" lon="4.18523">
        <ele>1523</ele>
        <time>2020-09-03T12:46:27Z</time>
      </trkpt>
      <trkpt lat="44.90094" lon="4.18552">
        <ele>1523</ele>
        <time>2020-09-03T12:47:00Z</time>
      </trkpt>
      <trkpt lat="44.90128" lon="4.18554">
        <ele>1527</ele>
        <time>2020-09-03T12:47:45Z</time>
      </trkpt>
      <trkpt lat="44.9017" lon="4.18604">
        <ele>1531</ele>
        <time>2020-09-03T12:48:58Z</time>
      </trkpt>
      <trkpt lat="44.90202" lon="4.18618">
        <ele>1537</ele>
        <time>2020-09-03T12:49:43Z</time>
      </trkpt>
      <trkpt lat="44.90211" lon="4.18592">
        <ele>1538</ele>
        <time>2020-09-03T12:50:10Z</time>
      </trkpt>
      <trkpt lat="44.90224" lon="4.18566">
        <ele>1539</ele>
        <time>2020-09-03T12:50:41Z</time>
      </trkpt>
      <trkpt lat="44.90235" lon="4.18563">
        <ele>1541</ele>
        <time>2020-09-03T12:50:55Z</time>
      </trkpt>
      <trkpt lat="44.90247" lon="4.18613">
        <ele>1545</ele>
        <time>2020-09-03T12:51:45Z</time>
      </trkpt>
      <trkpt lat="44.90266" lon="4.18601">
        <ele>1547</ele>
        <time>2020-09-03T12:52:13Z</time>
      </trkpt>
      <trkpt lat="44.90284" lon="4.18603">
        <ele>1550</ele>
        <time>2020-09-03T12:52:37Z</time>
      </trkpt>
      <trkpt lat="44.90313" lon="4.18585">
        <ele>1552</ele>
        <time>2020-09-03T12:53:20Z</time>
      </trkpt>
      <trkpt lat="44.90321" lon="4.18609">
        <ele>1556</ele>
        <time>2020-09-03T12:53:45Z</time>
      </trkpt>
      <trkpt lat="44.9033" lon="4.18616">
        <ele>1558</ele>
        <time>2020-09-03T12:53:58Z</time>
      </trkpt>
      <trkpt lat="44.9038" lon="4.18593">
        <ele>1562</ele>
        <time>2020-09-03T12:55:09Z</time>
      </trkpt>
      <trkpt lat="44.90368" lon="4.18646">
        <ele>1566</ele>
        <time>2020-09-03T12:56:01Z</time>
      </trkpt>
      <trkpt lat="44.90403" lon="4.18631">
        <ele>1569</ele>
        <time>2020-09-03T12:56:50Z</time>
      </trkpt>
      <trkpt lat="44.90431" lon="4.18623">
        <ele>1573</ele>
        <time>2020-09-03T12:57:28Z</time>
      </trkpt>
      <trkpt lat="44.90443" lon="4.1866">
        <ele>1578</ele>
        <time>2020-09-03T12:58:06Z</time>
      </trkpt>
      <trkpt lat="44.90454" lon="4.18725">
        <ele>1585</ele>
        <time>2020-09-03T12:59:10Z</time>
      </trkpt>
      <trkpt lat="44.9047" lon="4.18753">
        <ele>1589</ele>
        <time>2020-09-03T12:59:44Z</time>
      </trkpt>
      <trkpt lat="44.90477" lon="4.18781">
        <ele>1592</ele>
        <time>2020-09-03T13:00:12Z</time>
      </trkpt>
      <trkpt lat="44.90478" lon="4.18807">
        <ele>1594</ele>
        <time>2020-09-03T13:00:36Z</time>
      </trkpt>
      <trkpt lat="44.90481" lon="4.1881">
        <ele>1594</ele>
        <time>2020-09-03T13:00:41Z</time>
      </trkpt>
      <trkpt lat="44.90497" lon="4.18773">
        <ele>1595</ele>
        <time>2020-09-03T13:01:22Z</time>
      </trkpt>
      <trkpt lat="44.90529" lon="4.18752">
        <ele>1600</ele>
        <time>2020-09-03T13:02:09Z</time>
      </trkpt>
      <trkpt lat="44.90546" lon="4.18745">
        <ele>1603</ele>
        <time>2020-09-03T13:02:33Z</time>
      </trkpt>
      <trkpt lat="44.90598" lon="4.18735">
        <ele>1611</ele>
        <time>2020-09-03T13:03:43Z</time>
      </trkpt>
      <trkpt lat="44.90636" lon="4.18735">
        <ele>1616</ele>
        <time>2020-09-03T13:04:34Z</time>
      </trkpt>
      <trkpt lat="44.90646" lon="4.18738">
        <ele>1617</ele>
        <time>2020-09-03T13:04:47Z</time>
      </trkpt>
      <trkpt lat="44.90674" lon="4.18735">
        <ele>1620</ele>
        <time>2020-09-03T13:05:25Z</time>
      </trkpt>
      <trkpt lat="44.90683" lon="4.18731">
        <ele>1621</ele>
        <time>2020-09-03T13:05:37Z</time>
      </trkpt>
      <trkpt lat="44.90702" lon="4.18731">
        <ele>1622</ele>
        <time>2020-09-03T13:06:03Z</time>
      </trkpt>
      <trkpt lat="44.90738" lon="4.18747">
        <ele>1627</ele>
        <time>2020-09-03T13:06:53Z</time>
      </trkpt>
      <trkpt lat="44.90785" lon="4.18757">
        <ele>1634</ele>
        <time>2020-09-03T13:07:57Z</time>
      </trkpt>
      <trkpt lat="44.90794" lon="4.18757">
        <ele>1635</ele>
        <time>2020-09-03T13:08:09Z</time>
      </trkpt>
      <trkpt lat="44.908" lon="4.18767">
        <ele>1636</ele>
        <time>2020-09-03T13:08:21Z</time>
      </trkpt>
      <trkpt lat="44.90809" lon="4.1877">
        <ele>1638</ele>
        <time>2020-09-03T13:08:33Z</time>
      </trkpt>
      <trkpt lat="44.90817" lon="4.18777">
        <ele>1639</ele>
        <time>2020-09-03T13:08:46Z</time>
      </trkpt>
      <trkpt lat="44.90845" lon="4.18785">
        <ele>1643</ele>
        <time>2020-09-03T13:09:24Z</time>
      </trkpt>
      <trkpt lat="44.9086" lon="4.18801">
        <ele>1645</ele>
        <time>2020-09-03T13:09:49Z</time>
      </trkpt>
      <trkpt lat="44.90888" lon="4.18803">
        <ele>1648</ele>
        <time>2020-09-03T13:10:26Z</time>
      </trkpt>
      <trkpt lat="44.90896" lon="4.1881">
        <ele>1649</ele>
        <time>2020-09-03T13:10:39Z</time>
      </trkpt>
      <trkpt lat="44.90905" lon="4.18813">
        <ele>1650</ele>
        <time>2020-09-03T13:10:51Z</time>
      </trkpt>
      <trkpt lat="44.90935" lon="4.18809">
        <ele>1652</ele>
        <time>2020-09-03T13:11:32Z</time>
      </trkpt>
      <trkpt lat="44.90944" lon="4.18804">
        <ele>1652</ele>
        <time>2020-09-03T13:11:44Z</time>
      </trkpt>
      <trkpt lat="44.90954" lon="4.18802">
        <ele>1652</ele>
        <time>2020-09-03T13:11:58Z</time>
      </trkpt>
      <trkpt lat="44.90979" lon="4.18784">
        <ele>1652</ele>
        <time>2020-09-03T13:12:35Z</time>
      </trkpt>
      <trkpt lat="44.91006" lon="4.18772">
        <ele>1652</ele>
        <time>2020-09-03T13:13:13Z</time>
      </trkpt>
      <trkpt lat="44.91014" lon="4.18764">
        <ele>1652</ele>
        <time>2020-09-03T13:13:26Z</time>
      </trkpt>
      <trkpt lat="44.91024" lon="4.18766">
        <ele>1653</ele>
        <time>2020-09-03T13:13:40Z</time>
      </trkpt>
      <trkpt lat="44.91032" lon="4.18771">
        <ele>1654</ele>
        <time>2020-09-03T13:13:51Z</time>
      </trkpt>
      <trkpt lat="44.91041" lon="4.1877">
        <ele>1655</ele>
        <time>2020-09-03T13:14:03Z</time>
      </trkpt>
      <trkpt lat="44.91067" lon="4.18787">
        <ele>1659</ele>
        <time>2020-09-03T13:14:42Z</time>
      </trkpt>
      <trkpt lat="44.91076" lon="4.18809">
        <ele>1662</ele>
        <time>2020-09-03T13:15:06Z</time>
      </trkpt>
      <trkpt lat="44.91085" lon="4.18815">
        <ele>1663</ele>
        <time>2020-09-03T13:15:19Z</time>
      </trkpt>
      <trkpt lat="44.91091" lon="4.18825">
        <ele>1665</ele>
        <time>2020-09-03T13:15:31Z</time>
      </trkpt>
      <trkpt lat="44.91109" lon="4.18831">
        <ele>1667</ele>
        <time>2020-09-03T13:15:56Z</time>
      </trkpt>
      <trkpt lat="44.91126" lon="4.1884">
        <ele>1669</ele>
        <time>2020-09-03T13:16:20Z</time>
      </trkpt>
      <trkpt lat="44.91136" lon="4.1884">
        <ele>1670</ele>
        <time>2020-09-03T13:16:34Z</time>
      </trkpt>
      <trkpt lat="44.91155" lon="4.18834">
        <ele>1670</ele>
        <time>2020-09-03T13:17:00Z</time>
      </trkpt>
      <trkpt lat="44.91164" lon="4.18836">
        <ele>1671</ele>
        <time>2020-09-03T13:17:12Z</time>
      </trkpt>
      <trkpt lat="44.91167" lon="4.18849">
        <ele>1674</ele>
        <time>2020-09-03T13:17:25Z</time>
      </trkpt>
      <trkpt lat="44.91154" lon="4.18898">
        <ele>1683</ele>
        <time>2020-09-03T13:18:14Z</time>
      </trkpt>
      <trkpt lat="44.91162" lon="4.18906">
        <ele>1685</ele>
        <time>2020-09-03T13:18:27Z</time>
      </trkpt>
      <trkpt lat="44.91171" lon="4.1891">
        <ele>1686</ele>
        <time>2020-09-03T13:18:40Z</time>
      </trkpt>
      <trkpt lat="44.9118" lon="4.1891">
        <ele>1687</ele>
        <time>2020-09-03T13:18:52Z</time>
      </trkpt>
      <trkpt lat="44.91205" lon="4.18927">
        <ele>1693</ele>
        <time>2020-09-03T13:19:29Z</time>
      </trkpt>
      <trkpt lat="44.91215" lon="4.18931">
        <ele>1695</ele>
        <time>2020-09-03T13:19:43Z</time>
      </trkpt>
      <trkpt lat="44.91224" lon="4.18931">
        <ele>1696</ele>
        <time>2020-09-03T13:19:55Z</time>
      </trkpt>
      <trkpt lat="44.91242" lon="4.18939">
        <ele>1699</ele>
        <time>2020-09-03T13:20:20Z</time>
      </trkpt>
      <trkpt lat="44.91249" lon="4.18962">
        <ele>1704</ele>
        <time>2020-09-03T13:20:44Z</time>
      </trkpt>
      <trkpt lat="44.91255" lon="4.18971">
        <ele>1706</ele>
        <time>2020-09-03T13:20:55Z</time>
      </trkpt>
      <trkpt lat="44.91264" lon="4.18976">
        <ele>1708</ele>
        <time>2020-09-03T13:21:08Z</time>
      </trkpt>
      <trkpt lat="44.9127" lon="4.18986">
        <ele>1711</ele>
        <time>2020-09-03T13:21:21Z</time>
      </trkpt>
      <trkpt lat="44.91271" lon="4.18999">
        <ele>1713</ele>
        <time>2020-09-03T13:21:33Z</time>
      </trkpt>
      <trkpt lat="44.91265" lon="4.19077">
        <ele>1723</ele>
        <time>2020-09-03T13:22:47Z</time>
      </trkpt>
      <trkpt lat="44.91255" lon="4.19114">
        <ele>1725</ele>
        <time>2020-09-03T13:23:24Z</time>
      </trkpt>
      <trkpt lat="44.91244" lon="4.19134">
        <ele>1727</ele>
        <time>2020-09-03T13:23:48Z</time>
      </trkpt>
      <trkpt lat="44.91235" lon="4.19138">
        <ele>1728</ele>
        <time>2020-09-03T13:24:01Z</time>
      </trkpt>
      <trkpt lat="44.91226" lon="4.19138">
        <ele>1728</ele>
        <time>2020-09-03T13:24:13Z</time>
      </trkpt>
      <trkpt lat="44.91218" lon="4.19131">
        <ele>1729</ele>
        <time>2020-09-03T13:24:26Z</time>
      </trkpt>
      <trkpt lat="44.9118" lon="4.19135">
        <ele>1732</ele>
        <time>2020-09-03T13:25:16Z</time>
      </trkpt>
      <trkpt lat="44.91143" lon="4.19124">
        <ele>1733</ele>
        <time>2020-09-03T13:26:07Z</time>
      </trkpt>
      <trkpt lat="44.91135" lon="4.19119">
        <ele>1733</ele>
        <time>2020-09-03T13:26:19Z</time>
      </trkpt>
      <trkpt lat="44.91128" lon="4.1911">
        <ele>1733</ele>
        <time>2020-09-03T13:26:31Z</time>
      </trkpt>
      <trkpt lat="44.9111" lon="4.19104">
        <ele>1734</ele>
        <time>2020-09-03T13:26:56Z</time>
      </trkpt>
      <trkpt lat="44.91104" lon="4.19095">
        <ele>1735</ele>
        <time>2020-09-03T13:27:08Z</time>
      </trkpt>
      <trkpt lat="44.91102" lon="4.19083">
        <ele>1734</ele>
        <time>2020-09-03T13:27:19Z</time>
      </trkpt>
      <trkpt lat="44.91091" lon="4.19103">
        <ele>1736</ele>
        <time>2020-09-03T13:27:43Z</time>
      </trkpt>
      <trkpt lat="44.91086" lon="4.19127">
        <ele>1736</ele>
        <time>2020-09-03T13:28:07Z</time>
      </trkpt>
      <trkpt lat="44.91081" lon="4.19138">
        <ele>1736</ele>
        <time>2020-09-03T13:28:19Z</time>
      </trkpt>
      <trkpt lat="44.91064" lon="4.192">
        <ele>1732</ele>
        <time>2020-09-03T13:29:22Z</time>
      </trkpt>
      <trkpt lat="44.91042" lon="4.19242">
        <ele>1724</ele>
        <time>2020-09-03T13:30:11Z</time>
      </trkpt>
      <trkpt lat="44.91063" lon="4.19271">
        <ele>1726</ele>
        <time>2020-09-03T13:30:51Z</time>
      </trkpt>
      <trkpt lat="44.91069" lon="4.19282">
        <ele>1726</ele>
        <time>2020-09-03T13:31:04Z</time>
      </trkpt>
      <trkpt lat="44.91072" lon="4.19294">
        <ele>1726</ele>
        <time>2020-09-03T13:31:16Z</time>
      </trkpt>
      <trkpt lat="44.91082" lon="4.19293">
        <ele>1729</ele>
        <time>2020-09-03T13:31:29Z</time>
      </trkpt>
      <trkpt lat="44.91103" lon="4.19266">
        <ele>1731</ele>
        <time>2020-09-03T13:32:07Z</time>
      </trkpt>
      <trkpt lat="44.91121" lon="4.19257">
        <ele>1731</ele>
        <time>2020-09-03T13:32:32Z</time>
      </trkpt>
      <trkpt lat="44.91129" lon="4.1925">
        <ele>1732</ele>
        <time>2020-09-03T13:32:45Z</time>
      </trkpt>
      <trkpt lat="44.91151" lon="4.19224">
        <ele>1732</ele>
        <time>2020-09-03T13:33:23Z</time>
      </trkpt>
      <trkpt lat="44.91167" lon="4.19209">
        <ele>1732</ele>
        <time>2020-09-03T13:33:49Z</time>
      </trkpt>
      <trkpt lat="44.9118" lon="4.1919">
        <ele>1732</ele>
        <time>2020-09-03T13:34:14Z</time>
      </trkpt>
      <trkpt lat="44.91198" lon="4.1918">
        <ele>1731</ele>
        <time>2020-09-03T13:34:40Z</time>
      </trkpt>
      <trkpt lat="44.91223" lon="4.19159">
        <ele>1730</ele>
        <time>2020-09-03T13:35:19Z</time>
      </trkpt>
      <trkpt lat="44.91231" lon="4.19152">
        <ele>1729</ele>
        <time>2020-09-03T13:35:31Z</time>
      </trkpt>
      <trkpt lat="44.91244" lon="4.19134">
        <ele>1727</ele>
        <time>2020-09-03T13:35:55Z</time>
      </trkpt>
      <trkpt lat="44.91255" lon="4.19112">
        <ele>1725</ele>
        <time>2020-09-03T13:36:21Z</time>
      </trkpt>
      <trkpt lat="44.91271" lon="4.19046">
        <ele>1719</ele>
        <time>2020-09-03T13:37:27Z</time>
      </trkpt>
      <trkpt lat="44.91271" lon="4.19006">
        <ele>1714</ele>
        <time>2020-09-03T13:38:05Z</time>
      </trkpt>
      <trkpt lat="44.91273" lon="4.18993">
        <ele>1712</ele>
        <time>2020-09-03T13:38:17Z</time>
      </trkpt>
      <trkpt lat="44.91267" lon="4.18983">
        <ele>1710</ele>
        <time>2020-09-03T13:38:29Z</time>
      </trkpt>
      <trkpt lat="44.91252" lon="4.18969">
        <ele>1706</ele>
        <time>2020-09-03T13:38:53Z</time>
      </trkpt>
      <trkpt lat="44.91248" lon="4.18943">
        <ele>1701</ele>
        <time>2020-09-03T13:39:19Z</time>
      </trkpt>
      <trkpt lat="44.91221" lon="4.18933">
        <ele>1696</ele>
        <time>2020-09-03T13:39:56Z</time>
      </trkpt>
      <trkpt lat="44.91203" lon="4.1893">
        <ele>1694</ele>
        <time>2020-09-03T13:40:20Z</time>
      </trkpt>
      <trkpt lat="44.91186" lon="4.18918">
        <ele>1689</ele>
        <time>2020-09-03T13:40:45Z</time>
      </trkpt>
      <trkpt lat="44.91168" lon="4.18913">
        <ele>1686</ele>
        <time>2020-09-03T13:41:10Z</time>
      </trkpt>
      <trkpt lat="44.9116" lon="4.18906">
        <ele>1685</ele>
        <time>2020-09-03T13:41:22Z</time>
      </trkpt>
      <trkpt lat="44.91156" lon="4.18894">
        <ele>1682</ele>
        <time>2020-09-03T13:41:35Z</time>
      </trkpt>
      <trkpt lat="44.91161" lon="4.1887">
        <ele>1678</ele>
        <time>2020-09-03T13:41:59Z</time>
      </trkpt>
      <trkpt lat="44.9116" lon="4.18844">
        <ele>1673</ele>
        <time>2020-09-03T13:42:23Z</time>
      </trkpt>
      <trkpt lat="44.91152" lon="4.18836">
        <ele>1670</ele>
        <time>2020-09-03T13:42:36Z</time>
      </trkpt>
      <trkpt lat="44.9114" lon="4.18816">
        <ele>1667</ele>
        <time>2020-09-03T13:43:01Z</time>
      </trkpt>
      <trkpt lat="44.91131" lon="4.18812">
        <ele>1666</ele>
        <time>2020-09-03T13:43:14Z</time>
      </trkpt>
      <trkpt lat="44.91117" lon="4.18778">
        <ele>1660</ele>
        <time>2020-09-03T13:43:51Z</time>
      </trkpt>
      <trkpt lat="44.91104" lon="4.1876">
        <ele>1658</ele>
        <time>2020-09-03T13:44:15Z</time>
      </trkpt>
      <trkpt lat="44.91093" lon="4.18739">
        <ele>1655</ele>
        <time>2020-09-03T13:44:40Z</time>
      </trkpt>
      <trkpt lat="44.91088" lon="4.18687">
        <ele>1646</ele>
        <time>2020-09-03T13:45:29Z</time>
      </trkpt>
      <trkpt lat="44.91083" lon="4.18675">
        <ele>1644</ele>
        <time>2020-09-03T13:45:43Z</time>
      </trkpt>
      <trkpt lat="44.91082" lon="4.18661">
        <ele>1642</ele>
        <time>2020-09-03T13:45:56Z</time>
      </trkpt>
      <trkpt lat="44.91074" lon="4.18654">
        <ele>1641</ele>
        <time>2020-09-03T13:46:08Z</time>
      </trkpt>
      <trkpt lat="44.91056" lon="4.18648">
        <ele>1639</ele>
        <time>2020-09-03T13:46:33Z</time>
      </trkpt>
      <trkpt lat="44.91048" lon="4.18642">
        <ele>1638</ele>
        <time>2020-09-03T13:46:45Z</time>
      </trkpt>
      <trkpt lat="44.91049" lon="4.18629">
        <ele>1636</ele>
        <time>2020-09-03T13:46:58Z</time>
      </trkpt>
      <trkpt lat="44.91066" lon="4.18598">
        <ele>1633</ele>
        <time>2020-09-03T13:47:35Z</time>
      </trkpt>
      <trkpt lat="44.91067" lon="4.18585">
        <ele>1631</ele>
        <time>2020-09-03T13:47:47Z</time>
      </trkpt>
      <trkpt lat="44.91058" lon="4.18562">
        <ele>1628</ele>
        <time>2020-09-03T13:48:12Z</time>
      </trkpt>
      <trkpt lat="44.91062" lon="4.18523">
        <ele>1624</ele>
        <time>2020-09-03T13:48:49Z</time>
      </trkpt>
      <trkpt lat="44.91069" lon="4.18498">
        <ele>1622</ele>
        <time>2020-09-03T13:49:14Z</time>
      </trkpt>
      <trkpt lat="44.91074" lon="4.18488">
        <ele>1621</ele>
        <time>2020-09-03T13:49:26Z</time>
      </trkpt>
      <trkpt lat="44.91107" lon="4.18459">
        <ele>1619</ele>
        <time>2020-09-03T13:50:18Z</time>
      </trkpt>
      <trkpt lat="44.91125" lon="4.18429">
        <ele>1617</ele>
        <time>2020-09-03T13:50:55Z</time>
      </trkpt>
      <trkpt lat="44.91129" lon="4.18417">
        <ele>1616</ele>
        <time>2020-09-03T13:51:08Z</time>
      </trkpt>
      <trkpt lat="44.91136" lon="4.18408">
        <ele>1615</ele>
        <time>2020-09-03T13:51:20Z</time>
      </trkpt>
      <trkpt lat="44.91145" lon="4.18407">
        <ele>1615</ele>
        <time>2020-09-03T13:51:32Z</time>
      </trkpt>
      <trkpt lat="44.91162" lon="4.18392">
        <ele>1614</ele>
        <time>2020-09-03T13:51:59Z</time>
      </trkpt>
      <trkpt lat="44.91173" lon="4.18371">
        <ele>1612</ele>
        <time>2020-09-03T13:52:24Z</time>
      </trkpt>
      <trkpt lat="44.91189" lon="4.18356">
        <ele>1611</ele>
        <time>2020-09-03T13:52:49Z</time>
      </trkpt>
      <trkpt lat="44.91196" lon="4.18346">
        <ele>1610</ele>
        <time>2020-09-03T13:53:03Z</time>
      </trkpt>
      <trkpt lat="44.91221" lon="4.18324">
        <ele>1608</ele>
        <time>2020-09-03T13:53:42Z</time>
      </trkpt>
      <trkpt lat="44.9123" lon="4.18321">
        <ele>1608</ele>
        <time>2020-09-03T13:53:54Z</time>
      </trkpt>
      <trkpt lat="44.91237" lon="4.18312">
        <ele>1607</ele>
        <time>2020-09-03T13:54:07Z</time>
      </trkpt>
      <trkpt lat="44.91246" lon="4.18306">
        <ele>1607</ele>
        <time>2020-09-03T13:54:20Z</time>
      </trkpt>
      <trkpt lat="44.91278" lon="4.18274">
        <ele>1604</ele>
        <time>2020-09-03T13:55:13Z</time>
      </trkpt>
      <trkpt lat="44.91287" lon="4.1827">
        <ele>1603</ele>
        <time>2020-09-03T13:55:25Z</time>
      </trkpt>
      <trkpt lat="44.91295" lon="4.18261">
        <ele>1602</ele>
        <time>2020-09-03T13:55:39Z</time>
      </trkpt>
      <trkpt lat="44.91314" lon="4.18255">
        <ele>1602</ele>
        <time>2020-09-03T13:56:05Z</time>
      </trkpt>
      <trkpt lat="44.91331" lon="4.18242">
        <ele>1600</ele>
        <time>2020-09-03T13:56:31Z</time>
      </trkpt>
      <trkpt lat="44.91337" lon="4.18233">
        <ele>1599</ele>
        <time>2020-09-03T13:56:42Z</time>
      </trkpt>
      <trkpt lat="44.91355" lon="4.18222">
        <ele>1598</ele>
        <time>2020-09-03T13:57:08Z</time>
      </trkpt>
      <trkpt lat="44.9137" lon="4.18205">
        <ele>1597</ele>
        <time>2020-09-03T13:57:34Z</time>
      </trkpt>
      <trkpt lat="44.91398" lon="4.18166">
        <ele>1594</ele>
        <time>2020-09-03T13:58:27Z</time>
      </trkpt>
      <trkpt lat="44.91413" lon="4.18131">
        <ele>1591</ele>
        <time>2020-09-03T13:59:05Z</time>
      </trkpt>
      <trkpt lat="44.91434" lon="4.18104">
        <ele>1588</ele>
        <time>2020-09-03T13:59:43Z</time>
      </trkpt>
      <trkpt lat="44.91454" lon="4.18058">
        <ele>1585</ele>
        <time>2020-09-03T14:00:34Z</time>
      </trkpt>
      <trkpt lat="44.9149" lon="4.17996">
        <ele>1583</ele>
        <time>2020-09-03T14:01:50Z</time>
      </trkpt>
      <trkpt lat="44.91498" lon="4.17973">
        <ele>1581</ele>
        <time>2020-09-03T14:02:14Z</time>
      </trkpt>
      <trkpt lat="44.91522" lon="4.17948">
        <ele>1578</ele>
        <time>2020-09-03T14:02:54Z</time>
      </trkpt>
      <trkpt lat="44.91543" lon="4.17911">
        <ele>1575</ele>
        <time>2020-09-03T14:03:39Z</time>
      </trkpt>
      <trkpt lat="44.91566" lon="4.17886">
        <ele>1572</ele>
        <time>2020-09-03T14:04:17Z</time>
      </trkpt>
      <trkpt lat="44.91583" lon="4.17873">
        <ele>1571</ele>
        <time>2020-09-03T14:04:43Z</time>
      </trkpt>
      <trkpt lat="44.91591" lon="4.17876">
        <ele>1570</ele>
        <time>2020-09-03T14:04:54Z</time>
      </trkpt>
      <trkpt lat="44.91591" lon="4.17876">
        <ele>1570</ele>
        <time>2020-09-03T14:04:54Z</time>
      </trkpt>
      <trkpt lat="44.91591" lon="4.17876">
        <ele>1570</ele>
        <time>2020-09-03T14:04:54Z</time>
      </trkpt>
      <trkpt lat="44.91587" lon="4.17887">
        <ele>1571</ele>
        <time>2020-09-03T14:05:06Z</time>
      </trkpt>
      <trkpt lat="44.91586" lon="4.17914">
        <ele>1572</ele>
        <time>2020-09-03T14:05:32Z</time>
      </trkpt>
      <trkpt lat="44.91591" lon="4.17952">
        <ele>1573</ele>
        <time>2020-09-03T14:06:08Z</time>
      </trkpt>
      <trkpt lat="44.91589" lon="4.18006">
        <ele>1575</ele>
        <time>2020-09-03T14:06:59Z</time>
      </trkpt>
      <trkpt lat="44.91594" lon="4.18075">
        <ele>1576</ele>
        <time>2020-09-03T14:08:05Z</time>
      </trkpt>
      <trkpt lat="44.91596" lon="4.18088">
        <ele>1576</ele>
        <time>2020-09-03T14:08:17Z</time>
      </trkpt>
      <trkpt lat="44.91601" lon="4.181">
        <ele>1576</ele>
        <time>2020-09-03T14:08:30Z</time>
      </trkpt>
      <trkpt lat="44.9161" lon="4.18165">
        <ele>1576</ele>
        <time>2020-09-03T14:09:33Z</time>
      </trkpt>
      <trkpt lat="44.91628" lon="4.18216">
        <ele>1575</ele>
        <time>2020-09-03T14:10:27Z</time>
      </trkpt>
      <trkpt lat="44.91638" lon="4.18269">
        <ele>1575</ele>
        <time>2020-09-03T14:11:19Z</time>
      </trkpt>
      <trkpt lat="44.91667" lon="4.18341">
        <ele>1573</ele>
        <time>2020-09-03T14:12:37Z</time>
      </trkpt>
      <trkpt lat="44.91677" lon="4.18378">
        <ele>1573</ele>
        <time>2020-09-03T14:13:14Z</time>
      </trkpt>
      <trkpt lat="44.91745" lon="4.18529">
        <ele>1566</ele>
        <time>2020-09-03T14:16:04Z</time>
      </trkpt>
      <trkpt lat="44.9176" lon="4.18578">
        <ele>1567</ele>
        <time>2020-09-03T14:16:54Z</time>
      </trkpt>
      <trkpt lat="44.91778" lon="4.18625">
        <ele>1567</ele>
        <time>2020-09-03T14:17:44Z</time>
      </trkpt>
      <trkpt lat="44.91792" lon="4.18642">
        <ele>1566</ele>
        <time>2020-09-03T14:18:09Z</time>
      </trkpt>
      <trkpt lat="44.91828" lon="4.18703">
        <ele>1564</ele>
        <time>2020-09-03T14:19:24Z</time>
      </trkpt>
      <trkpt lat="44.91849" lon="4.18731">
        <ele>1562</ele>
        <time>2020-09-03T14:20:03Z</time>
      </trkpt>
      <trkpt lat="44.9188" lon="4.18798">
        <ele>1560</ele>
        <time>2020-09-03T14:21:18Z</time>
      </trkpt>
      <trkpt lat="44.9189" lon="4.18835">
        <ele>1561</ele>
        <time>2020-09-03T14:21:56Z</time>
      </trkpt>
      <trkpt lat="44.91899" lon="4.18858">
        <ele>1560</ele>
        <time>2020-09-03T14:22:21Z</time>
      </trkpt>
      <trkpt lat="44.91907" lon="4.18912">
        <ele>1560</ele>
        <time>2020-09-03T14:23:13Z</time>
      </trkpt>
      <trkpt lat="44.91916" lon="4.18952">
        <ele>1559</ele>
        <time>2020-09-03T14:23:52Z</time>
      </trkpt>
      <trkpt lat="44.91948" lon="4.19036">
        <ele>1553</ele>
        <time>2020-09-03T14:25:22Z</time>
      </trkpt>
      <trkpt lat="44.91975" lon="4.19166">
        <ele>1556</ele>
        <time>2020-09-03T14:27:30Z</time>
      </trkpt>
      <trkpt lat="44.91997" lon="4.19254">
        <ele>1559</ele>
        <time>2020-09-03T14:28:59Z</time>
      </trkpt>
      <trkpt lat="44.9201" lon="4.19289">
        <ele>1558</ele>
        <time>2020-09-03T14:29:36Z</time>
      </trkpt>
      <trkpt lat="44.92016" lon="4.19299">
        <ele>1558</ele>
        <time>2020-09-03T14:29:48Z</time>
      </trkpt>
      <trkpt lat="44.9204" lon="4.19388">
        <ele>1556</ele>
        <time>2020-09-03T14:31:18Z</time>
      </trkpt>
      <trkpt lat="44.92049" lon="4.19469">
        <ele>1555</ele>
        <time>2020-09-03T14:32:36Z</time>
      </trkpt>
      <trkpt lat="44.92049" lon="4.19497">
        <ele>1555</ele>
        <time>2020-09-03T14:33:02Z</time>
      </trkpt>
      <trkpt lat="44.92054" lon="4.19521">
        <ele>1553</ele>
        <time>2020-09-03T14:33:26Z</time>
      </trkpt>
      <trkpt lat="44.92052" lon="4.19588">
        <ele>1552</ele>
        <time>2020-09-03T14:34:29Z</time>
      </trkpt>
      <trkpt lat="44.92046" lon="4.19628">
        <ele>1550</ele>
        <time>2020-09-03T14:35:08Z</time>
      </trkpt>
      <trkpt lat="44.92039" lon="4.19654">
        <ele>1549</ele>
        <time>2020-09-03T14:35:34Z</time>
      </trkpt>
      <trkpt lat="44.92028" lon="4.19675">
        <ele>1550</ele>
        <time>2020-09-03T14:35:59Z</time>
      </trkpt>
      <trkpt lat="44.92009" lon="4.19738">
        <ele>1548</ele>
        <time>2020-09-03T14:37:04Z</time>
      </trkpt>
      <trkpt lat="44.92007" lon="4.19751">
        <ele>1547</ele>
        <time>2020-09-03T14:37:16Z</time>
      </trkpt>
      <trkpt lat="44.92008" lon="4.19765">
        <ele>1545</ele>
        <time>2020-09-03T14:37:30Z</time>
      </trkpt>
      <trkpt lat="44.92018" lon="4.19787">
        <ele>1541</ele>
        <time>2020-09-03T14:37:54Z</time>
      </trkpt>
      <trkpt lat="44.92021" lon="4.198">
        <ele>1540</ele>
        <time>2020-09-03T14:38:07Z</time>
      </trkpt>
      <trkpt lat="44.92027" lon="4.19869">
        <ele>1536</ele>
        <time>2020-09-03T14:39:13Z</time>
      </trkpt>
      <trkpt lat="44.92034" lon="4.19907">
        <ele>1534</ele>
        <time>2020-09-03T14:39:50Z</time>
      </trkpt>
      <trkpt lat="44.92053" lon="4.19915">
        <ele>1532</ele>
        <time>2020-09-03T14:40:16Z</time>
      </trkpt>
      <trkpt lat="44.92062" lon="4.19915">
        <ele>1531</ele>
        <time>2020-09-03T14:40:28Z</time>
      </trkpt>
      <trkpt lat="44.92099" lon="4.19896">
        <ele>1527</ele>
        <time>2020-09-03T14:41:21Z</time>
      </trkpt>
      <trkpt lat="44.92118" lon="4.19891">
        <ele>1525</ele>
        <time>2020-09-03T14:41:47Z</time>
      </trkpt>
      <trkpt lat="44.9214" lon="4.19913">
        <ele>1523</ele>
        <time>2020-09-03T14:42:23Z</time>
      </trkpt>
      <trkpt lat="44.92149" lon="4.19919">
        <ele>1522</ele>
        <time>2020-09-03T14:42:36Z</time>
      </trkpt>
      <trkpt lat="44.92177" lon="4.19955">
        <ele>1518</ele>
        <time>2020-09-03T14:43:26Z</time>
      </trkpt>
      <trkpt lat="44.92181" lon="4.19967">
        <ele>1518</ele>
        <time>2020-09-03T14:43:39Z</time>
      </trkpt>
      <trkpt lat="44.92197" lon="4.19983">
        <ele>1517</ele>
        <time>2020-09-03T14:44:05Z</time>
      </trkpt>
      <trkpt lat="44.92202" lon="4.19994">
        <ele>1516</ele>
        <time>2020-09-03T14:44:18Z</time>
      </trkpt>
      <trkpt lat="44.92223" lon="4.20023">
        <ele>1515</ele>
        <time>2020-09-03T14:44:57Z</time>
      </trkpt>
      <trkpt lat="44.92269" lon="4.20069">
        <ele>1511</ele>
        <time>2020-09-03T14:46:12Z</time>
      </trkpt>
      <trkpt lat="44.92275" lon="4.20082">
        <ele>1510</ele>
        <time>2020-09-03T14:46:27Z</time>
      </trkpt>
      <trkpt lat="44.9229" lon="4.20098">
        <ele>1509</ele>
        <time>2020-09-03T14:46:52Z</time>
      </trkpt>
      <trkpt lat="44.92309" lon="4.20129">
        <ele>1507</ele>
        <time>2020-09-03T14:47:30Z</time>
      </trkpt>
      <trkpt lat="44.92324" lon="4.20148">
        <ele>1506</ele>
        <time>2020-09-03T14:47:57Z</time>
      </trkpt>
      <trkpt lat="44.92334" lon="4.20155">
        <ele>1505</ele>
        <time>2020-09-03T14:48:12Z</time>
      </trkpt>
      <trkpt lat="44.92345" lon="4.20177">
        <ele>1505</ele>
        <time>2020-09-03T14:48:38Z</time>
      </trkpt>
      <trkpt lat="44.92353" lon="4.20184">
        <ele>1504</ele>
        <time>2020-09-03T14:48:50Z</time>
      </trkpt>
      <trkpt lat="44.92359" lon="4.20195">
        <ele>1504</ele>
        <time>2020-09-03T14:49:03Z</time>
      </trkpt>
      <trkpt lat="44.92367" lon="4.202">
        <ele>1504</ele>
        <time>2020-09-03T14:49:15Z</time>
      </trkpt>
      <trkpt lat="44.9239" lon="4.20224">
        <ele>1503</ele>
        <time>2020-09-03T14:49:53Z</time>
      </trkpt>
      <trkpt lat="44.92404" lon="4.20243">
        <ele>1503</ele>
        <time>2020-09-03T14:50:19Z</time>
      </trkpt>
      <trkpt lat="44.92408" lon="4.20255">
        <ele>1503</ele>
        <time>2020-09-03T14:50:32Z</time>
      </trkpt>
      <trkpt lat="44.92415" lon="4.20263">
        <ele>1503</ele>
        <time>2020-09-03T14:50:44Z</time>
      </trkpt>
      <trkpt lat="44.9242" lon="4.20276">
        <ele>1502</ele>
        <time>2020-09-03T14:50:58Z</time>
      </trkpt>
      <trkpt lat="44.92444" lon="4.20295">
        <ele>1502</ele>
        <time>2020-09-03T14:51:34Z</time>
      </trkpt>
      <trkpt lat="44.92454" lon="4.20298">
        <ele>1502</ele>
        <time>2020-09-03T14:51:48Z</time>
      </trkpt>
      <trkpt lat="44.92463" lon="4.20293">
        <ele>1501</ele>
        <time>2020-09-03T14:52:01Z</time>
      </trkpt>
      <trkpt lat="44.92475" lon="4.20335">
        <ele>1502</ele>
        <time>2020-09-03T14:52:44Z</time>
      </trkpt>
      <trkpt lat="44.92487" lon="4.20336">
        <ele>1502</ele>
        <time>2020-09-03T14:53:00Z</time>
      </trkpt>
      <trkpt lat="44.92496" lon="4.20333">
        <ele>1503</ele>
        <time>2020-09-03T14:53:12Z</time>
      </trkpt>
      <trkpt lat="44.92505" lon="4.20338">
        <ele>1502</ele>
        <time>2020-09-03T14:53:25Z</time>
      </trkpt>
      <trkpt lat="44.92514" lon="4.20339">
        <ele>1500</ele>
        <time>2020-09-03T14:53:37Z</time>
      </trkpt>
      <trkpt lat="44.92524" lon="4.20333">
        <ele>1498</ele>
        <time>2020-09-03T14:53:52Z</time>
      </trkpt>
      <trkpt lat="44.92529" lon="4.20322">
        <ele>1497</ele>
        <time>2020-09-03T14:54:04Z</time>
      </trkpt>
      <trkpt lat="44.92538" lon="4.20315">
        <ele>1495</ele>
        <time>2020-09-03T14:54:18Z</time>
      </trkpt>
      <trkpt lat="44.92547" lon="4.20312">
        <ele>1493</ele>
        <time>2020-09-03T14:54:30Z</time>
      </trkpt>
      <trkpt lat="44.92554" lon="4.20303">
        <ele>1491</ele>
        <time>2020-09-03T14:54:43Z</time>
      </trkpt>
      <trkpt lat="44.92563" lon="4.20302">
        <ele>1489</ele>
        <time>2020-09-03T14:54:55Z</time>
      </trkpt>
      <trkpt lat="44.92571" lon="4.20294">
        <ele>1488</ele>
        <time>2020-09-03T14:55:08Z</time>
      </trkpt>
      <trkpt lat="44.9258" lon="4.20293">
        <ele>1486</ele>
        <time>2020-09-03T14:55:20Z</time>
      </trkpt>
      <trkpt lat="44.92597" lon="4.20286">
        <ele>1483</ele>
        <time>2020-09-03T14:55:43Z</time>
      </trkpt>
      <trkpt lat="44.92604" lon="4.20277">
        <ele>1481</ele>
        <time>2020-09-03T14:55:56Z</time>
      </trkpt>
      <trkpt lat="44.9261" lon="4.20286">
        <ele>1480</ele>
        <time>2020-09-03T14:56:08Z</time>
      </trkpt>
      <trkpt lat="44.92613" lon="4.20299">
        <ele>1479</ele>
        <time>2020-09-03T14:56:21Z</time>
      </trkpt>
      <trkpt lat="44.9261" lon="4.20312">
        <ele>1480</ele>
        <time>2020-09-03T14:56:34Z</time>
      </trkpt>
      <trkpt lat="44.9261" lon="4.20326">
        <ele>1480</ele>
        <time>2020-09-03T14:56:47Z</time>
      </trkpt>
      <trkpt lat="44.92596" lon="4.20361">
        <ele>1481</ele>
        <time>2020-09-03T14:57:25Z</time>
      </trkpt>
      <trkpt lat="44.92598" lon="4.20401">
        <ele>1477</ele>
        <time>2020-09-03T14:58:03Z</time>
      </trkpt>
      <trkpt lat="44.92595" lon="4.20414">
        <ele>1476</ele>
        <time>2020-09-03T14:58:16Z</time>
      </trkpt>
      <trkpt lat="44.92597" lon="4.20453">
        <ele>1471</ele>
        <time>2020-09-03T14:58:52Z</time>
      </trkpt>
      <trkpt lat="44.92593" lon="4.20466">
        <ele>1471</ele>
        <time>2020-09-03T14:59:06Z</time>
      </trkpt>
      <trkpt lat="44.92569" lon="4.20483">
        <ele>1472</ele>
        <time>2020-09-03T14:59:42Z</time>
      </trkpt>
      <trkpt lat="44.92529" lon="4.20541">
        <ele>1469</ele>
        <time>2020-09-03T15:00:58Z</time>
      </trkpt>
      <trkpt lat="44.92524" lon="4.20552">
        <ele>1468</ele>
        <time>2020-09-03T15:01:11Z</time>
      </trkpt>
      <trkpt lat="44.92509" lon="4.20567">
        <ele>1467</ele>
        <time>2020-09-03T15:01:35Z</time>
      </trkpt>
      <trkpt lat="44.92504" lon="4.20579">
        <ele>1465</ele>
        <time>2020-09-03T15:01:48Z</time>
      </trkpt>
      <trkpt lat="44.92508" lon="4.20591">
        <ele>1462</ele>
        <time>2020-09-03T15:02:01Z</time>
      </trkpt>
      <trkpt lat="44.92517" lon="4.20594">
        <ele>1461</ele>
        <time>2020-09-03T15:02:13Z</time>
      </trkpt>
      <trkpt lat="44.92527" lon="4.20594">
        <ele>1461</ele>
        <time>2020-09-03T15:02:26Z</time>
      </trkpt>
      <trkpt lat="44.92535" lon="4.206">
        <ele>1459</ele>
        <time>2020-09-03T15:02:39Z</time>
      </trkpt>
      <trkpt lat="44.92571" lon="4.20609">
        <ele>1456</ele>
        <time>2020-09-03T15:03:27Z</time>
      </trkpt>
      <trkpt lat="44.92581" lon="4.20606">
        <ele>1456</ele>
        <time>2020-09-03T15:03:41Z</time>
      </trkpt>
      <trkpt lat="44.92617" lon="4.20565">
        <ele>1457</ele>
        <time>2020-09-03T15:04:43Z</time>
      </trkpt>
      <trkpt lat="44.92625" lon="4.20558">
        <ele>1457</ele>
        <time>2020-09-03T15:04:55Z</time>
      </trkpt>
      <trkpt lat="44.92634" lon="4.20556">
        <ele>1456</ele>
        <time>2020-09-03T15:05:07Z</time>
      </trkpt>
      <trkpt lat="44.92634" lon="4.20544">
        <ele>1457</ele>
        <time>2020-09-03T15:05:19Z</time>
      </trkpt>
      <trkpt lat="44.92644" lon="4.20542">
        <ele>1456</ele>
        <time>2020-09-03T15:05:32Z</time>
      </trkpt>
      <trkpt lat="44.92644" lon="4.20556">
        <ele>1454</ele>
        <time>2020-09-03T15:05:45Z</time>
      </trkpt>
      <trkpt lat="44.92637" lon="4.20581">
        <ele>1453</ele>
        <time>2020-09-03T15:06:11Z</time>
      </trkpt>
      <trkpt lat="44.92645" lon="4.2059">
        <ele>1450</ele>
        <time>2020-09-03T15:06:24Z</time>
      </trkpt>
      <trkpt lat="44.92654" lon="4.20589">
        <ele>1449</ele>
        <time>2020-09-03T15:06:37Z</time>
      </trkpt>
      <trkpt lat="44.92672" lon="4.20582">
        <ele>1447</ele>
        <time>2020-09-03T15:07:01Z</time>
      </trkpt>
      <trkpt lat="44.9268" lon="4.20591">
        <ele>1445</ele>
        <time>2020-09-03T15:07:15Z</time>
      </trkpt>
      <trkpt lat="44.92673" lon="4.20616">
        <ele>1443</ele>
        <time>2020-09-03T15:07:40Z</time>
      </trkpt>
      <trkpt lat="44.92671" lon="4.20642">
        <ele>1440</ele>
        <time>2020-09-03T15:08:05Z</time>
      </trkpt>
      <trkpt lat="44.92673" lon="4.20654">
        <ele>1438</ele>
        <time>2020-09-03T15:08:17Z</time>
      </trkpt>
      <trkpt lat="44.92682" lon="4.20678">
        <ele>1435</ele>
        <time>2020-09-03T15:08:42Z</time>
      </trkpt>
      <trkpt lat="44.92709" lon="4.20687">
        <ele>1434</ele>
        <time>2020-09-03T15:09:20Z</time>
      </trkpt>
      <trkpt lat="44.92737" lon="4.20686">
        <ele>1433</ele>
        <time>2020-09-03T15:09:57Z</time>
      </trkpt>
      <trkpt lat="44.92756" lon="4.20681">
        <ele>1432</ele>
        <time>2020-09-03T15:10:23Z</time>
      </trkpt>
      <trkpt lat="44.92764" lon="4.20672">
        <ele>1432</ele>
        <time>2020-09-03T15:10:36Z</time>
      </trkpt>
      <trkpt lat="44.92778" lon="4.20688">
        <ele>1430</ele>
        <time>2020-09-03T15:11:00Z</time>
      </trkpt>
      <trkpt lat="44.92772" lon="4.207">
        <ele>1430</ele>
        <time>2020-09-03T15:11:14Z</time>
      </trkpt>
      <trkpt lat="44.92763" lon="4.20705">
        <ele>1430</ele>
        <time>2020-09-03T15:11:27Z</time>
      </trkpt>
      <trkpt lat="44.92756" lon="4.20713">
        <ele>1430</ele>
        <time>2020-09-03T15:11:39Z</time>
      </trkpt>
      <trkpt lat="44.92747" lon="4.20715">
        <ele>1431</ele>
        <time>2020-09-03T15:11:51Z</time>
      </trkpt>
      <trkpt lat="44.92739" lon="4.20722">
        <ele>1431</ele>
        <time>2020-09-03T15:12:04Z</time>
      </trkpt>
      <trkpt lat="44.92712" lon="4.20736">
        <ele>1430</ele>
        <time>2020-09-03T15:12:42Z</time>
      </trkpt>
      <trkpt lat="44.92685" lon="4.20741">
        <ele>1430</ele>
        <time>2020-09-03T15:13:19Z</time>
      </trkpt>
      <trkpt lat="44.92648" lon="4.20758">
        <ele>1429</ele>
        <time>2020-09-03T15:14:11Z</time>
      </trkpt>
      <trkpt lat="44.9264" lon="4.20766">
        <ele>1428</ele>
        <time>2020-09-03T15:14:24Z</time>
      </trkpt>
      <trkpt lat="44.92628" lon="4.20786">
        <ele>1424</ele>
        <time>2020-09-03T15:14:48Z</time>
      </trkpt>
      <trkpt lat="44.92611" lon="4.20796">
        <ele>1422</ele>
        <time>2020-09-03T15:15:13Z</time>
      </trkpt>
      <trkpt lat="44.92592" lon="4.20794">
        <ele>1422</ele>
        <time>2020-09-03T15:15:38Z</time>
      </trkpt>
      <trkpt lat="44.92583" lon="4.2079">
        <ele>1422</ele>
        <time>2020-09-03T15:15:51Z</time>
      </trkpt>
      <trkpt lat="44.9258" lon="4.20764">
        <ele>1428</ele>
        <time>2020-09-03T15:16:16Z</time>
      </trkpt>
      <trkpt lat="44.92559" lon="4.20738">
        <ele>1432</ele>
        <time>2020-09-03T15:16:53Z</time>
      </trkpt>
      <trkpt lat="44.9254" lon="4.20732">
        <ele>1433</ele>
        <time>2020-09-03T15:17:19Z</time>
      </trkpt>
      <trkpt lat="44.92511" lon="4.20731">
        <ele>1433</ele>
        <time>2020-09-03T15:17:58Z</time>
      </trkpt>
      <trkpt lat="44.92492" lon="4.20728">
        <ele>1434</ele>
        <time>2020-09-03T15:18:23Z</time>
      </trkpt>
      <trkpt lat="44.92474" lon="4.20721">
        <ele>1436</ele>
        <time>2020-09-03T15:18:48Z</time>
      </trkpt>
      <trkpt lat="44.92446" lon="4.2072">
        <ele>1437</ele>
        <time>2020-09-03T15:19:26Z</time>
      </trkpt>
      <trkpt lat="44.92426" lon="4.20725">
        <ele>1437</ele>
        <time>2020-09-03T15:19:53Z</time>
      </trkpt>
      <trkpt lat="44.92399" lon="4.20741">
        <ele>1437</ele>
        <time>2020-09-03T15:20:32Z</time>
      </trkpt>
      <trkpt lat="44.92385" lon="4.20758">
        <ele>1436</ele>
        <time>2020-09-03T15:20:56Z</time>
      </trkpt>
      <trkpt lat="44.92363" lon="4.20819">
        <ele>1430</ele>
        <time>2020-09-03T15:22:01Z</time>
      </trkpt>
      <trkpt lat="44.92357" lon="4.2083">
        <ele>1429</ele>
        <time>2020-09-03T15:22:14Z</time>
      </trkpt>
      <trkpt lat="44.92309" lon="4.20892">
        <ele>1419</ele>
        <time>2020-09-03T15:23:41Z</time>
      </trkpt>
      <trkpt lat="44.9229" lon="4.20923">
        <ele>1413</ele>
        <time>2020-09-03T15:24:20Z</time>
      </trkpt>
      <trkpt lat="44.92281" lon="4.20946">
        <ele>1410</ele>
        <time>2020-09-03T15:24:45Z</time>
      </trkpt>
      <trkpt lat="44.92261" lon="4.20976">
        <ele>1407</ele>
        <time>2020-09-03T15:25:24Z</time>
      </trkpt>
      <trkpt lat="44.92229" lon="4.21045">
        <ele>1392</ele>
        <time>2020-09-03T15:26:41Z</time>
      </trkpt>
      <trkpt lat="44.92214" lon="4.21062">
        <ele>1387</ele>
        <time>2020-09-03T15:27:07Z</time>
      </trkpt>
      <trkpt lat="44.92197" lon="4.21093">
        <ele>1382</ele>
        <time>2020-09-03T15:27:44Z</time>
      </trkpt>
      <trkpt lat="44.92188" lon="4.21099">
        <ele>1381</ele>
        <time>2020-09-03T15:27:57Z</time>
      </trkpt>
      <trkpt lat="44.92159" lon="4.21154">
        <ele>1378</ele>
        <time>2020-09-03T15:29:02Z</time>
      </trkpt>
      <trkpt lat="44.92141" lon="4.212">
        <ele>1374</ele>
        <time>2020-09-03T15:29:52Z</time>
      </trkpt>
      <trkpt lat="44.92119" lon="4.21229">
        <ele>1373</ele>
        <time>2020-09-03T15:30:32Z</time>
      </trkpt>
      <trkpt lat="44.92112" lon="4.21235">
        <ele>1373</ele>
        <time>2020-09-03T15:30:43Z</time>
      </trkpt>
      <trkpt lat="44.92094" lon="4.21248">
        <ele>1375</ele>
        <time>2020-09-03T15:31:10Z</time>
      </trkpt>
      <trkpt lat="44.92058" lon="4.21266">
        <ele>1373</ele>
        <time>2020-09-03T15:32:01Z</time>
      </trkpt>
      <trkpt lat="44.92049" lon="4.21262">
        <ele>1372</ele>
        <time>2020-09-03T15:32:14Z</time>
      </trkpt>
      <trkpt lat="44.92042" lon="4.21254">
        <ele>1371</ele>
        <time>2020-09-03T15:32:26Z</time>
      </trkpt>
      <trkpt lat="44.92037" lon="4.21242">
        <ele>1370</ele>
        <time>2020-09-03T15:32:39Z</time>
      </trkpt>
      <trkpt lat="44.92044" lon="4.21188">
        <ele>1367</ele>
        <time>2020-09-03T15:33:31Z</time>
      </trkpt>
      <trkpt lat="44.92042" lon="4.21162">
        <ele>1365</ele>
        <time>2020-09-03T15:33:55Z</time>
      </trkpt>
      <trkpt lat="44.92045" lon="4.21109">
        <ele>1360</ele>
        <time>2020-09-03T15:34:46Z</time>
      </trkpt>
      <trkpt lat="44.92069" lon="4.21038">
        <ele>1356</ele>
        <time>2020-09-03T15:36:00Z</time>
      </trkpt>
      <trkpt lat="44.92082" lon="4.2102">
        <ele>1356</ele>
        <time>2020-09-03T15:36:24Z</time>
      </trkpt>
      <trkpt lat="44.92123" lon="4.20981">
        <ele>1366</ele>
        <time>2020-09-03T15:37:30Z</time>
      </trkpt>
      <trkpt lat="44.9214" lon="4.20948">
        <ele>1371</ele>
        <time>2020-09-03T15:38:09Z</time>
      </trkpt>
      <trkpt lat="44.92143" lon="4.2092">
        <ele>1371</ele>
        <time>2020-09-03T15:38:35Z</time>
      </trkpt>
      <trkpt lat="44.92142" lon="4.20907">
        <ele>1371</ele>
        <time>2020-09-03T15:38:48Z</time>
      </trkpt>
      <trkpt lat="44.9213" lon="4.20857">
        <ele>1369</ele>
        <time>2020-09-03T15:39:38Z</time>
      </trkpt>
      <trkpt lat="44.92117" lon="4.20838">
        <ele>1365</ele>
        <time>2020-09-03T15:40:03Z</time>
      </trkpt>
      <trkpt lat="44.92108" lon="4.20832">
        <ele>1362</ele>
        <time>2020-09-03T15:40:16Z</time>
      </trkpt>
      <trkpt lat="44.92099" lon="4.20827">
        <ele>1359</ele>
        <time>2020-09-03T15:40:29Z</time>
      </trkpt>
      <trkpt lat="44.9207" lon="4.20825">
        <ele>1351</ele>
        <time>2020-09-03T15:41:08Z</time>
      </trkpt>
      <trkpt lat="44.92052" lon="4.20819">
        <ele>1349</ele>
        <time>2020-09-03T15:41:32Z</time>
      </trkpt>
      <trkpt lat="44.92029" lon="4.20798">
        <ele>1347</ele>
        <time>2020-09-03T15:42:09Z</time>
      </trkpt>
      <trkpt lat="44.92012" lon="4.20786">
        <ele>1346</ele>
        <time>2020-09-03T15:42:34Z</time>
      </trkpt>
      <trkpt lat="44.92002" lon="4.20782">
        <ele>1344</ele>
        <time>2020-09-03T15:42:48Z</time>
      </trkpt>
      <trkpt lat="44.9198" lon="4.2078">
        <ele>1343</ele>
        <time>2020-09-03T15:43:17Z</time>
      </trkpt>
      <trkpt lat="44.91971" lon="4.20784">
        <ele>1343</ele>
        <time>2020-09-03T15:43:30Z</time>
      </trkpt>
      <trkpt lat="44.91943" lon="4.20788">
        <ele>1341</ele>
        <time>2020-09-03T15:44:08Z</time>
      </trkpt>
      <trkpt lat="44.91903" lon="4.20803">
        <ele>1337</ele>
        <time>2020-09-03T15:45:03Z</time>
      </trkpt>
      <trkpt lat="44.91884" lon="4.20801">
        <ele>1336</ele>
        <time>2020-09-03T15:45:28Z</time>
      </trkpt>
      <trkpt lat="44.91854" lon="4.20805">
        <ele>1335</ele>
        <time>2020-09-03T15:46:09Z</time>
      </trkpt>
      <trkpt lat="44.91844" lon="4.20802">
        <ele>1335</ele>
        <time>2020-09-03T15:46:22Z</time>
      </trkpt>
      <trkpt lat="44.91827" lon="4.20791">
        <ele>1334</ele>
        <time>2020-09-03T15:46:47Z</time>
      </trkpt>
      <trkpt lat="44.9182" lon="4.20781">
        <ele>1334</ele>
        <time>2020-09-03T15:47:00Z</time>
      </trkpt>
      <trkpt lat="44.91804" lon="4.20746">
        <ele>1334</ele>
        <time>2020-09-03T15:47:40Z</time>
      </trkpt>
      <trkpt lat="44.91788" lon="4.20698">
        <ele>1343</ele>
        <time>2020-09-03T15:48:30Z</time>
      </trkpt>
      <trkpt lat="44.91777" lon="4.20677">
        <ele>1346</ele>
        <time>2020-09-03T15:48:55Z</time>
      </trkpt>
      <trkpt lat="44.91769" lon="4.20671">
        <ele>1346</ele>
        <time>2020-09-03T15:49:07Z</time>
      </trkpt>
      <trkpt lat="44.9174" lon="4.20663">
        <ele>1342</ele>
        <time>2020-09-03T15:49:46Z</time>
      </trkpt>
      <trkpt lat="44.91722" lon="4.20655">
        <ele>1341</ele>
        <time>2020-09-03T15:50:11Z</time>
      </trkpt>
      <trkpt lat="44.91694" lon="4.20653">
        <ele>1337</ele>
        <time>2020-09-03T15:50:49Z</time>
      </trkpt>
      <trkpt lat="44.9158" lon="4.20692">
        <ele>1327</ele>
        <time>2020-09-03T15:53:25Z</time>
      </trkpt>
      <trkpt lat="44.91562" lon="4.20705">
        <ele>1326</ele>
        <time>2020-09-03T15:53:52Z</time>
      </trkpt>
      <trkpt lat="44.91542" lon="4.20706">
        <ele>1326</ele>
        <time>2020-09-03T15:54:19Z</time>
      </trkpt>
      <trkpt lat="44.91523" lon="4.20704">
        <ele>1326</ele>
        <time>2020-09-03T15:54:44Z</time>
      </trkpt>
      <trkpt lat="44.91495" lon="4.20697">
        <ele>1326</ele>
        <time>2020-09-03T15:55:22Z</time>
      </trkpt>
      <trkpt lat="44.91455" lon="4.20692">
        <ele>1326</ele>
        <time>2020-09-03T15:56:16Z</time>
      </trkpt>
      <trkpt lat="44.91399" lon="4.20706">
        <ele>1323</ele>
        <time>2020-09-03T15:57:32Z</time>
      </trkpt>
      <trkpt lat="44.91314" lon="4.20736">
        <ele>1320</ele>
        <time>2020-09-03T15:59:29Z</time>
      </trkpt>
      <trkpt lat="44.91295" lon="4.20738">
        <ele>1319</ele>
        <time>2020-09-03T15:59:54Z</time>
      </trkpt>
      <trkpt lat="44.9122" lon="4.2072">
        <ele>1325</ele>
        <time>2020-09-03T16:01:36Z</time>
      </trkpt>
      <trkpt lat="44.91183" lon="4.20733">
        <ele>1322</ele>
        <time>2020-09-03T16:02:26Z</time>
      </trkpt>
      <trkpt lat="44.91174" lon="4.20739">
        <ele>1320</ele>
        <time>2020-09-03T16:02:40Z</time>
      </trkpt>
      <trkpt lat="44.91136" lon="4.20748">
        <ele>1318</ele>
        <time>2020-09-03T16:03:31Z</time>
      </trkpt>
      <trkpt lat="44.91118" lon="4.20744">
        <ele>1319</ele>
        <time>2020-09-03T16:03:56Z</time>
      </trkpt>
      <trkpt lat="44.91109" lon="4.20737">
        <ele>1321</ele>
        <time>2020-09-03T16:04:09Z</time>
      </trkpt>
      <trkpt lat="44.91101" lon="4.2073">
        <ele>1323</ele>
        <time>2020-09-03T16:04:22Z</time>
      </trkpt>
      <trkpt lat="44.91081" lon="4.20701">
        <ele>1331</ele>
        <time>2020-09-03T16:05:00Z</time>
      </trkpt>
      <trkpt lat="44.91047" lon="4.20676">
        <ele>1334</ele>
        <time>2020-09-03T16:05:51Z</time>
      </trkpt>
      <trkpt lat="44.91031" lon="4.20661">
        <ele>1336</ele>
        <time>2020-09-03T16:06:17Z</time>
      </trkpt>
      <trkpt lat="44.90993" lon="4.20651">
        <ele>1335</ele>
        <time>2020-09-03T16:07:08Z</time>
      </trkpt>
      <trkpt lat="44.90974" lon="4.20641">
        <ele>1337</ele>
        <time>2020-09-03T16:07:35Z</time>
      </trkpt>
      <trkpt lat="44.90946" lon="4.20636">
        <ele>1337</ele>
        <time>2020-09-03T16:08:13Z</time>
      </trkpt>
      <trkpt lat="44.90926" lon="4.20629">
        <ele>1338</ele>
        <time>2020-09-03T16:08:41Z</time>
      </trkpt>
      <trkpt lat="44.90879" lon="4.20598">
        <ele>1341</ele>
        <time>2020-09-03T16:09:50Z</time>
      </trkpt>
      <trkpt lat="44.9084" lon="4.20582">
        <ele>1340</ele>
        <time>2020-09-03T16:10:44Z</time>
      </trkpt>
      <trkpt lat="44.9081" lon="4.20578">
        <ele>1340</ele>
        <time>2020-09-03T16:11:24Z</time>
      </trkpt>
      <trkpt lat="44.90783" lon="4.20588">
        <ele>1339</ele>
        <time>2020-09-03T16:12:02Z</time>
      </trkpt>
      <trkpt lat="44.90774" lon="4.20585">
        <ele>1339</ele>
        <time>2020-09-03T16:12:14Z</time>
      </trkpt>
      <trkpt lat="44.90766" lon="4.20577">
        <ele>1340</ele>
        <time>2020-09-03T16:12:27Z</time>
      </trkpt>
      <trkpt lat="44.90718" lon="4.20587">
        <ele>1342</ele>
        <time>2020-09-03T16:13:32Z</time>
      </trkpt>
      <trkpt lat="44.9067" lon="4.2058">
        <ele>1346</ele>
        <time>2020-09-03T16:14:36Z</time>
      </trkpt>
      <trkpt lat="44.90661" lon="4.20583">
        <ele>1346</ele>
        <time>2020-09-03T16:14:48Z</time>
      </trkpt>
      <trkpt lat="44.90653" lon="4.20589">
        <ele>1345</ele>
        <time>2020-09-03T16:15:01Z</time>
      </trkpt>
      <trkpt lat="44.90644" lon="4.20583">
        <ele>1346</ele>
        <time>2020-09-03T16:15:14Z</time>
      </trkpt>
      <trkpt lat="44.90636" lon="4.20581">
        <ele>1346</ele>
        <time>2020-09-03T16:15:25Z</time>
      </trkpt>
      <trkpt lat="44.90626" lon="4.20582">
        <ele>1346</ele>
        <time>2020-09-03T16:15:38Z</time>
      </trkpt>
      <trkpt lat="44.90559" lon="4.20568">
        <ele>1346</ele>
        <time>2020-09-03T16:17:08Z</time>
      </trkpt>
      <trkpt lat="44.90552" lon="4.2056">
        <ele>1347</ele>
        <time>2020-09-03T16:17:20Z</time>
      </trkpt>
      <trkpt lat="44.90529" lon="4.2052">
        <ele>1351</ele>
        <time>2020-09-03T16:18:09Z</time>
      </trkpt>
      <trkpt lat="44.90519" lon="4.20469">
        <ele>1355</ele>
        <time>2020-09-03T16:18:59Z</time>
      </trkpt>
      <trkpt lat="44.90513" lon="4.20458">
        <ele>1356</ele>
        <time>2020-09-03T16:19:12Z</time>
      </trkpt>
      <trkpt lat="44.90509" lon="4.20433">
        <ele>1358</ele>
        <time>2020-09-03T16:19:36Z</time>
      </trkpt>
      <trkpt lat="44.90499" lon="4.20396">
        <ele>1360</ele>
        <time>2020-09-03T16:20:14Z</time>
      </trkpt>
      <trkpt lat="44.90501" lon="4.20343">
        <ele>1363</ele>
        <time>2020-09-03T16:21:04Z</time>
      </trkpt>
      <trkpt lat="44.90495" lon="4.20303">
        <ele>1365</ele>
        <time>2020-09-03T16:21:43Z</time>
      </trkpt>
      <trkpt lat="44.90491" lon="4.20292">
        <ele>1366</ele>
        <time>2020-09-03T16:21:54Z</time>
      </trkpt>
      <trkpt lat="44.90457" lon="4.20244">
        <ele>1369</ele>
        <time>2020-09-03T16:22:59Z</time>
      </trkpt>
      <trkpt lat="44.90438" lon="4.20195">
        <ele>1373</ele>
        <time>2020-09-03T16:23:51Z</time>
      </trkpt>
      <trkpt lat="44.90431" lon="4.20156">
        <ele>1378</ele>
        <time>2020-09-03T16:24:29Z</time>
      </trkpt>
      <trkpt lat="44.90431" lon="4.20143">
        <ele>1380</ele>
        <time>2020-09-03T16:24:42Z</time>
      </trkpt>
      <trkpt lat="44.90446" lon="4.20081">
        <ele>1389</ele>
        <time>2020-09-03T16:25:44Z</time>
      </trkpt>
      <trkpt lat="44.90446" lon="4.20054">
        <ele>1396</ele>
        <time>2020-09-03T16:26:09Z</time>
      </trkpt>
      <trkpt lat="44.9044" lon="4.20044">
        <ele>1399</ele>
        <time>2020-09-03T16:26:22Z</time>
      </trkpt>
      <trkpt lat="44.90424" lon="4.20031">
        <ele>1404</ele>
        <time>2020-09-03T16:26:46Z</time>
      </trkpt>
      <trkpt lat="44.90418" lon="4.20022">
        <ele>1407</ele>
        <time>2020-09-03T16:26:58Z</time>
      </trkpt>
      <trkpt lat="44.90421" lon="4.20011">
        <ele>1410</ele>
        <time>2020-09-03T16:27:09Z</time>
      </trkpt>
      <trkpt lat="44.9043" lon="4.20011">
        <ele>1408</ele>
        <time>2020-09-03T16:27:21Z</time>
      </trkpt>
      <trkpt lat="44.90446" lon="4.19996">
        <ele>1410</ele>
        <time>2020-09-03T16:27:47Z</time>
      </trkpt>
      <trkpt lat="44.90456" lon="4.19995">
        <ele>1410</ele>
        <time>2020-09-03T16:28:00Z</time>
      </trkpt>
      <trkpt lat="44.90474" lon="4.19987">
        <ele>1410</ele>
        <time>2020-09-03T16:28:25Z</time>
      </trkpt>
      <trkpt lat="44.90497" lon="4.19963">
        <ele>1416</ele>
        <time>2020-09-03T16:29:03Z</time>
      </trkpt>
      <trkpt lat="44.90517" lon="4.19936">
        <ele>1423</ele>
        <time>2020-09-03T16:29:40Z</time>
      </trkpt>
      <trkpt lat="44.90508" lon="4.19934">
        <ele>1425</ele>
        <time>2020-09-03T16:29:52Z</time>
      </trkpt>
      <trkpt lat="44.90489" lon="4.19943">
        <ele>1424</ele>
        <time>2020-09-03T16:30:19Z</time>
      </trkpt>
      <trkpt lat="44.9048" lon="4.19943">
        <ele>1425</ele>
        <time>2020-09-03T16:30:31Z</time>
      </trkpt>
      <trkpt lat="44.90464" lon="4.1993">
        <ele>1431</ele>
        <time>2020-09-03T16:30:56Z</time>
      </trkpt>
      <trkpt lat="44.90449" lon="4.19914">
        <ele>1437</ele>
        <time>2020-09-03T16:31:21Z</time>
      </trkpt>
      <trkpt lat="44.90443" lon="4.19904">
        <ele>1441</ele>
        <time>2020-09-03T16:31:33Z</time>
      </trkpt>
      <trkpt lat="44.90418" lon="4.19884">
        <ele>1448</ele>
        <time>2020-09-03T16:32:12Z</time>
      </trkpt>
      <trkpt lat="44.90411" lon="4.19875">
        <ele>1450</ele>
        <time>2020-09-03T16:32:24Z</time>
      </trkpt>
      <trkpt lat="44.90412" lon="4.19861">
        <ele>1454</ele>
        <time>2020-09-03T16:32:38Z</time>
      </trkpt>
      <trkpt lat="44.90428" lon="4.19847">
        <ele>1457</ele>
        <time>2020-09-03T16:33:03Z</time>
      </trkpt>
      <trkpt lat="44.90446" lon="4.19836">
        <ele>1459</ele>
        <time>2020-09-03T16:33:29Z</time>
      </trkpt>
      <trkpt lat="44.90482" lon="4.19824">
        <ele>1458</ele>
        <time>2020-09-03T16:34:18Z</time>
      </trkpt>
      <trkpt lat="44.9048" lon="4.19811">
        <ele>1461</ele>
        <time>2020-09-03T16:34:31Z</time>
      </trkpt>
      <trkpt lat="44.90456" lon="4.19787">
        <ele>1467</ele>
        <time>2020-09-03T16:35:10Z</time>
      </trkpt>
      <trkpt lat="44.90438" lon="4.19777">
        <ele>1470</ele>
        <time>2020-09-03T16:35:36Z</time>
      </trkpt>
      <trkpt lat="44.9042" lon="4.19774">
        <ele>1472</ele>
        <time>2020-09-03T16:36:00Z</time>
      </trkpt>
      <trkpt lat="44.9039" lon="4.19776">
        <ele>1473</ele>
        <time>2020-09-03T16:36:40Z</time>
      </trkpt>
      <trkpt lat="44.90381" lon="4.19775">
        <ele>1473</ele>
        <time>2020-09-03T16:36:52Z</time>
      </trkpt>
      <trkpt lat="44.90372" lon="4.1977">
        <ele>1475</ele>
        <time>2020-09-03T16:37:05Z</time>
      </trkpt>
      <trkpt lat="44.90374" lon="4.19756">
        <ele>1477</ele>
        <time>2020-09-03T16:37:19Z</time>
      </trkpt>
      <trkpt lat="44.90413" lon="4.19699">
        <ele>1484</ele>
        <time>2020-09-03T16:38:33Z</time>
      </trkpt>
      <trkpt lat="44.90394" lon="4.19666">
        <ele>1488</ele>
        <time>2020-09-03T16:39:14Z</time>
      </trkpt>
      <trkpt lat="44.90385" lon="4.19664">
        <ele>1487</ele>
        <time>2020-09-03T16:39:26Z</time>
      </trkpt>
      <trkpt lat="44.90377" lon="4.19639">
        <ele>1486</ele>
        <time>2020-09-03T16:39:52Z</time>
      </trkpt>
      <trkpt lat="44.90385" lon="4.19615">
        <ele>1486</ele>
        <time>2020-09-03T16:40:17Z</time>
      </trkpt>
      <trkpt lat="44.90392" lon="4.19606">
        <ele>1487</ele>
        <time>2020-09-03T16:40:29Z</time>
      </trkpt>
      <trkpt lat="44.90393" lon="4.19592">
        <ele>1487</ele>
        <time>2020-09-03T16:40:43Z</time>
      </trkpt>
      <trkpt lat="44.90402" lon="4.19569">
        <ele>1488</ele>
        <time>2020-09-03T16:41:08Z</time>
      </trkpt>
      <trkpt lat="44.90404" lon="4.19541">
        <ele>1489</ele>
        <time>2020-09-03T16:41:34Z</time>
      </trkpt>
      <trkpt lat="44.904" lon="4.19473">
        <ele>1489</ele>
        <time>2020-09-03T16:42:39Z</time>
      </trkpt>
      <trkpt lat="44.90404" lon="4.19461">
        <ele>1491</ele>
        <time>2020-09-03T16:42:51Z</time>
      </trkpt>
      <trkpt lat="44.90404" lon="4.19448">
        <ele>1491</ele>
        <time>2020-09-03T16:43:04Z</time>
      </trkpt>
      <trkpt lat="44.90397" lon="4.19408">
        <ele>1491</ele>
        <time>2020-09-03T16:43:42Z</time>
      </trkpt>
      <trkpt lat="44.90382" lon="4.19371">
        <ele>1490</ele>
        <time>2020-09-03T16:44:23Z</time>
      </trkpt>
      <trkpt lat="44.90363" lon="4.19339">
        <ele>1487</ele>
        <time>2020-09-03T16:45:02Z</time>
      </trkpt>
      <trkpt lat="44.90348" lon="4.19305">
        <ele>1489</ele>
        <time>2020-09-03T16:45:40Z</time>
      </trkpt>
      <trkpt lat="44.9034" lon="4.193">
        <ele>1488</ele>
        <time>2020-09-03T16:45:52Z</time>
      </trkpt>
      <trkpt lat="44.90325" lon="4.19282">
        <ele>1487</ele>
        <time>2020-09-03T16:46:18Z</time>
      </trkpt>
      <trkpt lat="44.90316" lon="4.19277">
        <ele>1485</ele>
        <time>2020-09-03T16:46:31Z</time>
      </trkpt>
      <trkpt lat="44.90295" lon="4.1925">
        <ele>1483</ele>
        <time>2020-09-03T16:47:09Z</time>
      </trkpt>
      <trkpt lat="44.90285" lon="4.19227">
        <ele>1485</ele>
        <time>2020-09-03T16:47:34Z</time>
      </trkpt>
      <trkpt lat="44.90269" lon="4.19178">
        <ele>1490</ele>
        <time>2020-09-03T16:48:25Z</time>
      </trkpt>
      <trkpt lat="44.90265" lon="4.19152">
        <ele>1495</ele>
        <time>2020-09-03T16:48:50Z</time>
      </trkpt>
      <trkpt lat="44.9026" lon="4.19141">
        <ele>1496</ele>
        <time>2020-09-03T16:49:03Z</time>
      </trkpt>
      <trkpt lat="44.9024" lon="4.19115">
        <ele>1496</ele>
        <time>2020-09-03T16:49:39Z</time>
      </trkpt>
      <trkpt lat="44.90235" lon="4.19104">
        <ele>1497</ele>
        <time>2020-09-03T16:49:51Z</time>
      </trkpt>
      <trkpt lat="44.90227" lon="4.19097">
        <ele>1496</ele>
        <time>2020-09-03T16:50:04Z</time>
      </trkpt>
      <trkpt lat="44.90204" lon="4.19056">
        <ele>1497</ele>
        <time>2020-09-03T16:50:53Z</time>
      </trkpt>
      <trkpt lat="44.90186" lon="4.18994">
        <ele>1502</ele>
        <time>2020-09-03T16:51:57Z</time>
      </trkpt>
      <trkpt lat="44.90183" lon="4.18954">
        <ele>1507</ele>
        <time>2020-09-03T16:52:35Z</time>
      </trkpt>
      <trkpt lat="44.90179" lon="4.18942">
        <ele>1506</ele>
        <time>2020-09-03T16:52:47Z</time>
      </trkpt>
      <trkpt lat="44.90171" lon="4.1889">
        <ele>1509</ele>
        <time>2020-09-03T16:53:38Z</time>
      </trkpt>
      <trkpt lat="44.90165" lon="4.18836">
        <ele>1512</ele>
        <time>2020-09-03T16:54:29Z</time>
      </trkpt>
      <trkpt lat="44.90162" lon="4.18823">
        <ele>1512</ele>
        <time>2020-09-03T16:54:42Z</time>
      </trkpt>
      <trkpt lat="44.90152" lon="4.18801">
        <ele>1512</ele>
        <time>2020-09-03T16:55:07Z</time>
      </trkpt>
      <trkpt lat="44.90114" lon="4.1874">
        <ele>1510</ele>
        <time>2020-09-03T16:56:24Z</time>
      </trkpt>
      <trkpt lat="44.90101" lon="4.18718">
        <ele>1509</ele>
        <time>2020-09-03T16:56:51Z</time>
      </trkpt>
      <trkpt lat="44.90091" lon="4.18695">
        <ele>1510</ele>
        <time>2020-09-03T16:57:16Z</time>
      </trkpt>
      <trkpt lat="44.90078" lon="4.18676">
        <ele>1510</ele>
        <time>2020-09-03T16:57:41Z</time>
      </trkpt>
      <trkpt lat="44.90028" lon="4.18631">
        <ele>1508</ele>
        <time>2020-09-03T16:59:00Z</time>
      </trkpt>
      <trkpt lat="44.9002" lon="4.18627">
        <ele>1507</ele>
        <time>2020-09-03T16:59:12Z</time>
      </trkpt>
      <trkpt lat="44.89997" lon="4.18601">
        <ele>1508</ele>
        <time>2020-09-03T16:59:51Z</time>
      </trkpt>
      <trkpt lat="44.89991" lon="4.18591">
        <ele>1510</ele>
        <time>2020-09-03T17:00:03Z</time>
      </trkpt>
      <trkpt lat="44.89977" lon="4.18583">
        <ele>1510</ele>
        <time>2020-09-03T17:00:24Z</time>
      </trkpt>
      <trkpt lat="44.89952" lon="4.18546">
        <ele>1512</ele>
        <time>2020-09-03T17:01:12Z</time>
      </trkpt>
      <trkpt lat="44.89946" lon="4.18547">
        <ele>1512</ele>
        <time>2020-09-03T17:01:20Z</time>
        <extensions>
          <visugpx:TrkExtension xmlns:visugpx="https://www.visugpx.com/editgpx/">
            <visugpx:node>1</visugpx:node>
            </visugpx:TrkExtension>
        </extensions>
      </trkpt>
    </trkseg>
  </trk>
</gpx>